Etusivu
METAR-TAF:

METAR-TAF

Lentoasemat :

Figari, Ranska

Leveyspiiri: 41-30N, Pituuspiiri: 009-06E, korkeus merenpinnasta: 26 m

Tämänhetkinen sää

Tämä raportti tehtiin 16 minuuttia sitten, kello 22.00 UTC
Tuuli 10 kn idästä/koillisesta, vaihdellen pohjoisen/koillisen ja idän välillä
Lämpötila 12°C
Kosteus 88%
Ilmanpaine 1007 hPa
Näkyvyys 10 km tai enemmän
sadetta

METAR: LFKF 182200Z AUTO 06010KT 030V090 9999 RA SCT060/// OVC074/// ///CB 12/10 Q1007

Aika: 23:16 (22:16 UTC)

Sääennuste

Tämä raportti tehtiin 8 tuntia ja 16 minuuttia sitten, kello 14.00 UTC
Ennuste voimassa 18. päivästä klo 15 UTC - 19. päivään klo 15 UTC
Tuuli 8 kn idästä
Näkyvyys 10 km tai enemmän
Ajoittain
18. päivästä klo 15 UTC - 19. päivään klo 15 UTC
Tuuli 15 kn idästä puuskistuen 30 kn:hen
Hajanaisia pilviä 2000 ft:n korkeudessa, Cumulonimbus.
Hajonneita pilviä 4000 ft:n korkeudessa
vesikuuroja

TAF: LFKF 181400Z 1815/1915 09008KT 9999 NSC TEMPO 1815/1915 10015G30KT SHRA SCT020CB BKN040

Säähavainnot ja -ennusteet yli 4000 lentoasemalta (METAR- ja TAF-raportit).

Käytössä olevat sääasemat on merkitty karttaan keltaisilla ja punaisilla pisteillä.

Aseta hiiri pisteen päälle nähdäksesi sääaseman nimen.

Klikkaa sitten nähdäksesi säähavainnot ja -ennusteet.

Kartan vaihtaminen: klikkaa mustalla rastilla varustettuja vihreitä pisteitä, niin voit zoomata sisään; viivalla varustettua vihreää pistettä, niin voit zoomata ulos tai vihreitä nuolia, niin pääset viereisille kartoille.


METAR-TAF: